Time;durP1;ratioP1;P1;durP2;ratioP2;P2;SDS_P1;SDS_P2;PMS_P1;PMS_P2;Temp;Humidity;BMP_temperature;BMP_pressure;BME280_temperature;BME280_humidity;BME280_pressure;Samples;Min_cycle;Max_cycle;Signal;HPM_P1;HPM_P2
2021/06/03 00:00:46;;;;;;;17.20;15.05;;;17.50;85.70;;;;;;5023948;28;20071;-92
2021/06/03 00:03:15;;;;;;;16.55;14.85;;;17.50;85.60;;;;;;5034779;28;20074;-92
2021/06/03 00:05:55;;;;;;;17.15;15.07;;;17.40;85.80;;;;;;5056601;28;20066;-93
2021/06/03 00:08:24;;;;;;;19.02;14.95;;;17.40;86.00;;;;;;5053327;28;20047;-93
2021/06/03 00:11:03;;;;;;;17.17;15.25;;;17.30;86.20;;;;;;5046055;27;20090;-92
2021/06/03 00:13:37;;;;;;;15.98;14.15;;;17.30;86.40;;;;;;4969719;28;20819;-92
2021/06/03 00:16:19;;;;;;;16.17;13.77;;;17.30;86.30;;;;;;4986302;28;20063;-92
2021/06/03 00:18:50;;;;;;;16.77;14.57;;;17.20;86.60;;;;;;4977333;28;20137;-92
2021/06/03 00:21:16;;;;;;;16.23;14.60;;;17.20;86.40;;;;;;4966051;28;20132;-93
2021/06/03 00:23:43;;;;;;;17.90;15.43;;;17.20;86.40;;;;;;4992481;28;20112;-92
2021/06/03 00:26:09;;;;;;;16.85;14.88;;;17.30;86.20;;;;;;4968607;28;20057;-93
2021/06/03 00:28:35;;;;;;;15.68;13.95;;;17.30;86.20;;;;;;5005542;28;20056;-90
2021/06/03 00:31:02;;;;;;;15.90;14.23;;;17.30;85.80;;;;;;5032178;28;20131;-92
2021/06/03 00:33:34;;;;;;;16.60;14.80;;;17.30;85.70;;;;;;4972962;28;20117;-92
2021/06/03 00:36:02;;;;;;;17.80;15.63;;;17.30;85.50;;;;;;4984914;28;20064;-92
2021/06/03 00:38:35;;;;;;;13.57;11.88;;;17.30;86.00;;;;;;5042063;28;20058;-91
2021/06/03 00:41:01;;;;;;;15.00;13.27;;;17.30;85.80;;;;;;5085388;27;20506;-92
2021/06/03 00:43:31;;;;;;;16.45;14.35;;;17.30;85.80;;;;;;5060694;28;20047;-93
2021/06/03 00:45:58;;;;;;;16.27;14.25;;;17.30;85.80;;;;;;5074470;28;20135;-92
2021/06/03 00:48:28;;;;;;;14.75;13.32;;;17.30;85.70;;;;;;5045154;28;20060;-92
2021/06/03 00:51:02;;;;;;;17.88;14.30;;;17.30;85.30;;;;;;5018604;28;20051;-92
2021/06/03 00:53:32;;;;;;;17.25;14.32;;;17.30;85.40;;;;;;5095293;27;20039;-92
2021/06/03 00:55:59;;;;;;;17.40;14.40;;;17.40;85.40;;;;;;5055514;28;20124;-91
2021/06/03 00:58:28;;;;;;;15.95;13.75;;;17.40;85.40;;;;;;5067538;27;20044;-92
2021/06/03 01:00:55;;;;;;;14.80;13.30;;;17.40;85.30;;;;;;5054003;27;20045;-91
2021/06/03 01:03:23;;;;;;;16.55;14.85;;;17.30;85.00;;;;;;5063825;28;20103;-91
2021/06/03 01:06:14;;;;;;;18.15;14.60;;;17.30;84.90;;;;;;5047095;28;20491;-92
2021/06/03 01:08:50;;;;;;;18.00;14.80;;;17.30;85.10;;;;;;5044777;27;20128;-90
2021/06/03 01:11:48;;;;;;;18.20;14.93;;;17.30;85.20;;;;;;5061150;28;20056;-96
2021/06/03 01:14:39;;;;;;;16.58;14.88;;;17.30;86.50;;;;;;5032966;28;20076;-91
2021/06/03 01:17:06;;;;;;;15.77;13.80;;;17.30;85.30;;;;;;5067702;28;20051;-91
2021/06/03 01:19:38;;;;;;;16.15;14.43;;;17.30;85.30;;;;;;5059550;28;20126;-91
2021/06/03 01:22:45;;;;;;;17.80;13.30;;;17.30;85.40;;;;;;5000703;28;20464;-91
2021/06/03 01:25:14;;;;;;;15.98;14.15;;;17.30;84.80;;;;;;5038343;28;20110;-94
2021/06/03 01:27:41;;;;;;;15.95;13.75;;;17.20;84.50;;;;;;5068791;27;20133;-91
2021/06/03 01:30:16;;;;;;;16.58;14.50;;;17.20;84.70;;;;;;5061961;28;20137;-91
2021/06/03 01:32:57;;;;;;;16.55;14.85;;;17.20;84.60;;;;;;5078470;27;20120;-91
2021/06/03 01:35:28;;;;;;;16.55;13.90;;;17.20;85.20;;;;;;5025897;28;20058;-92
2021/06/03 01:37:57;;;;;;;16.20;14.70;;;17.20;84.90;;;;;;5021862;28;20481;-90
2021/06/03 01:40:28;;;;;;;17.17;15.38;;;17.20;84.50;;;;;;5060418;27;20055;-91
2021/06/03 01:42:57;;;;;;;18.90;15.77;;;17.20;84.90;;;;;;5058856;28;20061;-91
2021/06/03 01:45:26;;;;;;;14.95;13.45;;;17.20;85.20;;;;;;5039947;28;20109;-92
2021/06/03 01:47:56;;;;;;;16.90;14.95;;;17.20;84.10;;;;;;5055054;28;20588;-92
2021/06/03 01:50:26;;;;;;;16.35;14.10;;;17.20;84.50;;;;;;5100795;27;20063;-92
2021/06/03 01:52:58;;;;;;;16.55;14.85;;;17.20;84.40;;;;;;5071777;28;20397;-91
2021/06/03 01:55:24;;;;;;;17.50;14.88;;;17.20;84.80;;;;;;5062132;28;20110;-93
2021/06/03 01:57:56;;;;;;;17.38;15.48;;;17.20;84.60;;;;;;5045765;28;20089;-91
2021/06/03 02:00:31;;;;;;;15.98;14.43;;;17.20;84.60;;;;;;5045225;28;20496;-91
2021/06/03 02:03:03;;;;;;;16.98;15.27;;;17.20;84.40;;;;;;5033914;28;20540;-92
2021/06/03 02:05:33;;;;;;;15.70;14.02;;;17.20;84.40;;;;;;5016131;28;20571;-91
2021/06/03 02:08:00;;;;;;;15.65;14.15;;;17.10;84.00;;;;;;5001331;28;20123;-92
2021/06/03 02:10:29;;;;;;;14.80;13.30;;;17.20;83.30;;;;;;5053446;28;20064;-93
2021/06/03 02:13:24;;;;;;;17.75;15.95;;;17.20;82.90;;;;;;5043961;28;20101;-91
2021/06/03 02:16:13;;;;;;;19.17;16.38;;;17.20;83.60;;;;;;5051376;28;20086;-91
2021/06/03 02:19:02;;;;;;;17.52;13.73;;;17.20;83.90;;;;;;5062856;28;20151;-92
2021/06/03 02:21:31;;;;;;;18.13;16.25;;;17.20;83.50;;;;;;5071388;28;20513;-91
2021/06/03 02:24:02;;;;;;;16.38;14.68;;;17.10;83.90;;;;;;5035827;28;20056;-90
2021/06/03 02:26:34;;;;;;;14.63;12.43;;;17.10;83.90;;;;;;5058515;28;20089;-91
2021/06/03 02:29:09;;;;;;;14.65;13.25;;;17.20;83.10;;;;;;5037576;28;20092;-92
2021/06/03 02:31:46;;;;;;;17.58;15.68;;;17.20;82.40;;;;;;5047238;28;20055;-91
2021/06/03 02:34:12;;;;;;;16.58;14.10;;;17.20;83.10;;;;;;5064904;28;20051;-91
2021/06/03 02:36:38;;;;;;;16.00;14.30;;;17.10;83.30;;;;;;5026823;28;20119;-92
2021/06/03 02:39:07;;;;;;;16.92;15.25;;;17.10;82.80;;;;;;5072032;28;20134;-91
2021/06/03 02:41:35;;;;;;;15.32;13.82;;;17.10;83.10;;;;;;5074507;28;20052;-90
2021/06/03 02:44:06;;;;;;;15.75;13.88;;;17.10;83.40;;;;;;5037965;28;20054;-89
2021/06/03 02:46:35;;;;;;;14.38;12.88;;;17.20;83.10;;;;;;5043277;28;20045;-92
2021/06/03 02:49:04;;;;;;;14.55;13.05;;;17.10;81.80;;;;;;5023826;28;20056;-91
2021/06/03 02:51:30;;;;;;;16.77;14.77;;;17.10;81.60;;;;;;5039262;27;20501;-91
2021/06/03 02:53:56;;;;;;;18.35;15.45;;;17.00;82.60;;;;;;5018511;28;20100;-91
2021/06/03 02:56:22;;;;;;;15.75;14.07;;;17.10;83.40;;;;;;5075135;28;20492;-92
2021/06/03 02:58:55;;;;;;;14.90;13.25;;;17.00;82.30;;;;;;5058475;27;20164;-92
2021/06/03 03:01:32;;;;;;;16.85;15.05;;;17.00;81.80;;;;;;5064606;28;20118;-92
2021/06/03 03:03:59;;;;;;;16.70;15.02;;;17.00;82.10;;;;;;5061903;28;20057;-92
2021/06/03 03:06:27;;;;;;;18.10;15.98;;;16.90;83.20;;;;;;5060924;28;20047;-91
2021/06/03 03:09:01;;;;;;;13.40;12.10;;;16.90;83.50;;;;;;5066506;28;20052;-91
2021/06/03 03:11:30;;;;;;;14.93;13.43;;;16.90;82.50;;;;;;5071049;27;20065;-92
2021/06/03 03:13:58;;;;;;;18.30;16.30;;;16.90;81.50;;;;;;5026044;27;20478;-91
2021/06/03 03:16:24;;;;;;;16.88;14.73;;;16.90;82.00;;;;;;5050025;27;20065;-92
2021/06/03 03:19:00;;;;;;;15.13;13.25;;;16.80;82.20;;;;;;5060720;28;20070;-92
2021/06/03 03:21:26;;;;;;;17.83;16.02;;;16.80;81.90;;;;;;5078576;28;20530;-93
2021/06/03 03:23:54;;;;;;;18.98;16.38;;;16.80;82.60;;;;;;5077990;27;20043;-92
2021/06/03 03:26:23;;;;;;;17.15;14.70;;;16.80;83.40;;;;;;5057974;27;20138;-93
2021/06/03 03:28:49;;;;;;;16.55;14.85;;;16.80;83.30;;;;;;5048389;28;20101;-92
2021/06/03 03:31:15;;;;;;;17.63;15.77;;;16.70;83.30;;;;;;5042953;28;20109;-92
2021/06/03 03:33:41;;;;;;;17.23;15.45;;;16.70;83.40;;;;;;5048280;28;20380;-92
2021/06/03 03:36:08;;;;;;;17.00;15.20;;;16.70;83.50;;;;;;5028477;28;20105;-90
2021/06/03 03:38:36;;;;;;;17.48;15.68;;;16.70;83.40;;;;;;5074851;27;20150;-93
2021/06/03 03:41:03;;;;;;;16.55;14.88;;;16.60;82.90;;;;;;5069215;27;20133;-92
2021/06/03 03:43:31;;;;;;;16.48;14.88;;;16.70;83.10;;;;;;5041809;28;20053;-92
2021/06/03 03:45:58;;;;;;;15.98;14.38;;;16.60;82.70;;;;;;5055198;28;20067;-92
2021/06/03 03:48:26;;;;;;;16.25;14.65;;;16.70;82.40;;;;;;5057388;27;22036;-91
2021/06/03 03:50:54;;;;;;;16.65;14.93;;;16.70;82.50;;;;;;5054222;27;20061;-91
2021/06/03 03:53:21;;;;;;;16.90;14.77;;;16.70;82.50;;;;;;5103348;27;20079;-91
2021/06/03 03:55:49;;;;;;;17.17;15.48;;;16.80;82.20;;;;;;5106394;28;20132;-91
2021/06/03 03:58:15;;;;;;;16.55;14.93;;;16.80;82.20;;;;;;5079277;27;20055;-91
2021/06/03 04:00:46;;;;;;;16.27;14.57;;;16.90;82.10;;;;;;5069110;27;20051;-91
2021/06/03 04:03:14;;;;;;;16.20;14.50;;;17.00;82.00;;;;;;5083660;28;20113;-91
2021/06/03 04:05:42;;;;;;;15.73;14.13;;;16.90;82.30;;;;;;5105924;28;20134;-91
2021/06/03 04:08:08;;;;;;;14.98;13.38;;;17.00;82.30;;;;;;5083763;27;20411;-92
2021/06/03 04:10:34;;;;;;;16.63;14.50;;;17.10;81.70;;;;;;5059342;28;20055;-90
2021/06/03 04:13:01;;;;;;;16.35;14.75;;;17.20;81.80;;;;;;5045422;27;20055;-91
2021/06/03 04:15:29;;;;;;;16.65;14.95;;;17.20;81.70;;;;;;5048143;28;20048;-91
2021/06/03 04:17:59;;;;;;;15.88;14.15;;;17.30;81.60;;;;;;5039307;27;20056;-91
2021/06/03 04:20:26;;;;;;;15.15;13.65;;;17.40;81.70;;;;;;5057008;28;20055;-93
2021/06/03 04:22:52;;;;;;;15.02;13.63;;;17.50;81.40;;;;;;4995494;28;20048;-91
2021/06/03 04:25:18;;;;;;;15.10;13.60;;;17.60;81.70;;;;;;5032919;28;20047;-92
2021/06/03 04:27:44;;;;;;;15.52;13.57;;;17.60;81.80;;;;;;5016523;28;20052;-91
2021/06/03 04:30:14;;;;;;;14.95;13.55;;;17.60;81.50;;;;;;5043654;28;20051;-92
2021/06/03 04:32:44;;;;;;;15.27;13.00;;;17.70;81.60;;;;;;5063607;27;20059;-92
2021/06/03 04:35:22;;;;;;;;;;;;;;;;;;;;;
2021/06/03 04:37:51;;;;;;;13.68;12.38;;;17.80;81.80;;;;;;5040683;28;20048;-91
2021/06/03 04:40:23;;;;;;;14.98;13.38;;;17.90;81.40;;;;;;5055532;28;20480;-93
2021/06/03 04:42:50;;;;;;;13.88;12.57;;;17.90;81.50;;;;;;5040284;28;20401;-92
2021/06/03 04:45:24;;;;;;;13.15;11.85;;;18.00;81.40;;;;;;5051197;28;20056;-93
2021/06/03 04:47:54;;;;;;;13.27;11.98;;;18.00;80.90;;;;;;5045718;28;20135;-92
2021/06/03 04:50:21;;;;;;;12.38;11.18;;;18.10;80.70;;;;;;4986882;28;20056;-92
2021/06/03 04:53:03;;;;;;;12.55;11.23;;;18.10;80.90;;;;;;4991213;28;20124;-92
2021/06/03 04:55:33;;;;;;;12.82;11.27;;;18.20;80.70;;;;;;5053076;28;20082;-89
2021/06/03 04:58:03;;;;;;;14.60;12.02;;;18.30;81.10;;;;;;5073701;28;20051;-90
2021/06/03 05:00:35;;;;;;;12.00;10.73;;;18.30;81.40;;;;;;5079059;28;20143;-91
2021/06/03 05:03:09;;;;;;;12.20;10.88;;;18.40;80.90;;;;;;5036707;28;20057;-93
2021/06/03 05:05:39;;;;;;;11.35;10.27;;;18.40;80.60;;;;;;4955723;28;20121;-93
2021/06/03 05:08:10;;;;;;;13.07;10.50;;;18.50;80.30;;;;;;5026943;28;20139;-92
2021/06/03 05:10:39;;;;;;;13.15;11.85;;;18.50;80.10;;;;;;5021395;28;20049;-93
2021/06/03 05:13:33;;;;;;;12.98;11.68;;;18.60;80.80;;;;;;5047974;28;20059;-94
2021/06/03 05:16:07;;;;;;;11.10;10.00;;;18.70;81.50;;;;;;4992254;28;20058;-94
2021/06/03 05:18:46;;;;;;;12.80;11.13;;;18.80;81.10;;;;;;5031818;28;20053;-93
2021/06/03 05:21:12;;;;;;;12.13;11.00;;;18.80;80.60;;;;;;4947024;28;20133;-92
2021/06/03 05:24:27;;;;;;;13.30;11.13;;;18.90;81.10;;;;;;4991436;28;20049;-93
2021/06/03 05:27:30;;;;;;;;;;;;;;;;;;;;;
2021/06/03 05:33:12;;;;;;;12.85;11.50;;;19.10;81.10;;;;;;5219419;23;20909;-95
2021/06/03 05:35:48;;;;;;;12.07;10.90;;;19.20;81.10;;;;;;5527996;23;20053;-95
2021/06/03 05:39:13;;;;;;;;;;;;;;;;;;;;;
2021/06/03 05:42:15;;;;;;;12.90;11.60;;;19.30;81.70;;;;;;4728001;29;21549;-95
2021/06/03 05:52:26;;;;;;;;;;;;;;;;;;;;;
2021/06/03 06:16:06;;;;;;;;;;;;;;;;;;;;;
2021/06/03 06:18:37;;;;;;;15.07;13.50;;;19.80;82.60;;;;;;4887379;23;14604410;-95
2021/06/03 06:21:40;;;;;;;25.27;19.40;;;19.90;82.60;;;;;;5029774;27;20183;-95
2021/06/03 06:24:30;;;;;;;14.95;13.40;;;20.00;82.80;;;;;;4910397;28;20051;-94
2021/06/03 06:35:45;;;;;;;16.25;14.65;;;20.10;83.20;;;;;;4815977;29;20065;-95
2021/06/03 07:00:46;;;;;;;16.63;14.93;;;20.50;82.80;;;;;;6145297;23;20226;-95
2021/06/03 08:11:25;;;;;;;18.20;16.27;;;22.10;79.60;;;;;;5264314;23;15499211;-95
2021/06/03 08:14:49;;;;;;;17.63;15.63;;;22.30;78.30;;;;;;5760094;24;20248;-95
2021/06/03 10:04:23;;;;;;;17.20;15.02;;;25.40;66.20;;;;;;6011295;22;20027;-92
2021/06/03 10:17:36;;;;;;;15.02;13.40;;;25.50;65.90;;;;;;5023264;28;20143;-89
2021/06/03 10:20:09;;;;;;;16.08;14.68;;;26.20;64.60;;;;;;5009970;28;20049;-86
2021/06/03 10:22:56;;;;;;;16.17;14.57;;;;;;;;;;5009183;28;20104;-90
2021/06/03 10:25:36;;;;;;;16.20;14.60;;;26.00;63.60;;;;;;4966006;28;20499;-89
2021/06/03 10:28:01;;;;;;;16.08;14.52;;;26.10;63.70;;;;;;4988270;28;20061;-89
2021/06/03 10:30:32;;;;;;;16.35;14.65;;;26.30;63.70;;;;;;4896000;28;20059;-91
2021/06/03 10:33:04;;;;;;;16.75;15.07;;;26.30;63.60;;;;;;4779795;29;20049;-90
2021/06/03 10:35:51;;;;;;;16.75;15.10;;;26.50;63.70;;;;;;4993791;27;96667;-91
2021/06/03 10:39:00;;;;;;;15.43;13.93;;;26.60;62.50;;;;;;5139555;22;20172;-94
2021/06/03 10:41:47;;;;;;;16.75;15.18;;;26.70;65.10;;;;;;4835218;29;20058;-89
2021/06/03 10:44:30;;;;;;;17.20;15.48;;;26.80;62.40;;;;;;4989711;27;20562;-89
2021/06/03 10:46:56;;;;;;;16.63;14.95;;;26.80;63.30;;;;;;4955796;28;20043;-88
2021/06/03 10:49:47;;;;;;;17.10;15.50;;;26.80;63.50;;;;;;5014474;27;20161;-89
2021/06/03 10:52:22;;;;;;;18.15;16.20;;;27.10;62.70;;;;;;4975268;28;20413;-89
2021/06/03 10:55:00;;;;;;;17.55;15.82;;;26.90;61.90;;;;;;4954020;28;20436;-89
2021/06/03 10:58:00;;;;;;;18.08;16.20;;;27.00;63.50;;;;;;4922191;28;20205;-89
2021/06/03 11:00:58;;;;;;;18.58;16.83;;;27.20;62.50;;;;;;4989952;27;20157;-89
2021/06/03 11:03:40;;;;;;;15.68;13.57;;;27.20;63.70;;;;;;4944346;28;20074;-89
2021/06/03 11:09:02;;;;;;;20.10;16.55;;;27.20;63.60;;;;;;4975414;27;103909;-89
2021/06/03 11:11:32;;;;;;;16.13;14.48;;;27.10;62.00;;;;;;4935327;28;20047;-89
2021/06/03 11:14:12;;;;;;;16.08;14.27;;;26.80;63.90;;;;;;4871080;28;20384;-88
2021/06/03 11:16:50;;;;;;;15.23;13.82;;;27.00;63.70;;;;;;4737029;29;3118767;-88
2021/06/03 11:19:35;;;;;;;13.40;12.10;;;27.00;63.80;;;;;;5041092;27;20551;-89
2021/06/03 11:22:04;;;;;;;14.30;13.00;;;27.30;63.50;;;;;;4958418;28;20129;-89
2021/06/03 11:24:41;;;;;;;16.33;13.85;;;27.50;63.30;;;;;;4874545;28;20078;-89
2021/06/03 11:30:03;;;;;;;14.02;12.73;;;27.80;61.20;;;;;;5013263;27;20138;-89
2021/06/03 11:32:34;;;;;;;14.80;13.25;;;27.70;61.30;;;;;;4919524;28;20060;-89
2021/06/03 11:35:03;;;;;;;16.02;14.50;;;27.50;60.20;;;;;;4890560;28;20133;-89
2021/06/03 11:37:45;;;;;;;15.75;14.23;;;27.40;61.80;;;;;;4920140;28;20054;-88
2021/06/03 11:40:17;;;;;;;14.40;12.95;;;27.40;61.60;;;;;;4875091;28;20419;-89
2021/06/03 11:43:12;;;;;;;15.52;13.95;;;27.40;62.60;;;;;;5025430;27;20223;-88
2021/06/03 11:45:48;;;;;;;14.52;13.00;;;27.50;60.90;;;;;;4948186;28;20047;-89
2021/06/03 11:48:19;;;;;;;17.80;16.02;;;27.50;60.50;;;;;;4938293;28;20446;-89
2021/06/03 11:50:50;;;;;;;17.20;15.50;;;27.60;61.00;;;;;;4889292;28;20059;-88
2021/06/03 11:53:30;;;;;;;15.60;13.90;;;27.60;62.00;;;;;;4882474;28;20164;-89
2021/06/03 11:57:12;;;;;;;13.90;12.20;;;27.70;61.10;;;;;;5025068;27;20139;-89
2021/06/03 12:00:09;;;;;;;16.52;14.82;;;28.00;58.80;;;;;;4894059;28;20122;-89
2021/06/03 12:02:40;;;;;;;17.48;15.68;;;27.90;58.30;;;;;;4878434;29;149054;-89
2021/06/03 12:05:24;;;;;;;16.20;14.60;;;27.70;60.10;;;;;;5010860;27;97632;-88
2021/06/03 12:08:02;;;;;;;15.13;13.70;;;27.70;61.40;;;;;;4976017;28;20046;-88
2021/06/03 12:10:32;;;;;;;13.50;10.00;;;27.80;60.30;;;;;;4905699;28;20051;-90
2021/06/03 12:12:58;;;;;;;15.48;13.10;;;28.00;59.60;;;;;;4887653;28;20380;-88
2021/06/03 12:15:42;;;;;;;14.15;12.65;;;28.10;59.70;;;;;;4992859;27;20233;-94
2021/06/03 12:18:15;;;;;;;14.98;13.38;;;28.30;60.00;;;;;;4924944;28;20538;-88
2021/06/03 12:20:43;;;;;;;14.45;12.95;;;28.50;57.30;;;;;;4946768;28;20137;-87
2021/06/03 12:23:24;;;;;;;13.07;11.80;;;28.60;59.10;;;;;;4973697;27;104739;-88
2021/06/03 12:25:50;;;;;;;13.13;11.73;;;28.70;57.20;;;;;;5010296;28;20529;-87
2021/06/03 12:28:19;;;;;;;14.98;13.48;;;28.70;57.30;;;;;;4944547;28;20050;-88
2021/06/03 12:30:55;;;;;;;15.40;13.77;;;28.60;57.80;;;;;;4885823;28;817858;-87
2021/06/03 12:33:35;;;;;;;14.70;13.15;;;28.60;57.10;;;;;;4941844;27;20147;-88
2021/06/03 12:36:16;;;;;;;13.30;11.43;;;28.40;57.60;;;;;;4870632;29;20424;-87
2021/06/03 12:38:44;;;;;;;11.07;9.98;;;28.40;57.80;;;;;;4700118;29;4286422;-88
2021/06/03 12:41:35;;;;;;;13.43;12.10;;;28.30;57.40;;;;;;5016950;27;20615;-88
2021/06/03 12:44:14;;;;;;;11.45;9.32;;;28.30;56.60;;;;;;4927707;28;20050;-87
2021/06/03 12:46:41;;;;;;;10.23;9.32;;;28.40;54.80;;;;;;4898207;28;20061;-89
2021/06/03 12:49:19;;;;;;;13.20;11.93;;;28.40;56.60;;;;;;4861967;28;20070;-88
2021/06/03 12:51:52;;;;;;;17.48;9.48;;;28.60;55.50;;;;;;4849032;29;20063;-88
2021/06/03 12:54:54;;;;;;;8.68;7.38;;;28.80;57.30;;;;;;4768875;29;20047;-88
2021/06/03 12:57:37;;;;;;;9.13;6.78;;;28.80;56.90;;;;;;5001855;27;20137;-88
2021/06/03 13:00:10;;;;;;;5.30;4.80;;;28.90;54.20;;;;;;4936687;28;20106;-88
2021/06/03 13:02:39;;;;;;;5.75;4.95;;;28.90;52.60;;;;;;4852329;29;20041;-88
2021/06/03 13:05:22;;;;;;;8.55;7.60;;;28.90;52.30;;;;;;5012474;27;78806;-88
2021/06/03 13:07:49;;;;;;;9.85;8.85;;;28.80;52.70;;;;;;4961755;28;20404;-87
2021/06/03 13:10:20;;;;;;;10.68;9.60;;;28.60;53.30;;;;;;4933077;28;20047;-88
2021/06/03 13:13:12;;;;;;;12.27;8.65;;;28.60;54.80;;;;;;5014683;27;20146;-87
2021/06/03 13:15:46;;;;;;;9.30;8.35;;;28.60;53.30;;;;;;4919009;28;20058;-88
2021/06/03 13:18:26;;;;;;;7.72;7.03;;;28.40;53.70;;;;;;4900575;28;20512;-87
2021/06/03 13:21:13;;;;;;;8.77;7.97;;;28.50;53.60;;;;;;5087127;27;20138;-88
2021/06/03 13:23:41;;;;;;;11.73;10.50;;;28.50;52.90;;;;;;5043249;28;20177;-87
2021/06/03 13:26:19;;;;;;;11.25;10.02;;;28.60;53.70;;;;;;5059905;28;20083;-88
2021/06/03 13:28:47;;;;;;;10.13;9.20;;;28.40;53.70;;;;;;4982328;28;20042;-87
2021/06/03 13:31:19;;;;;;;8.43;7.03;;;28.40;53.10;;;;;;4934908;28;20058;-87
2021/06/03 13:33:46;;;;;;;9.77;7.30;;;28.40;53.60;;;;;;4912697;28;20065;-88
2021/06/03 13:36:14;;;;;;;7.90;6.70;;;28.50;52.00;;;;;;4867959;29;20477;-87
2021/06/03 13:38:52;;;;;;;8.43;7.60;;;28.60;51.20;;;;;;5057059;27;120649;-88
2021/06/03 13:41:22;;;;;;;11.38;10.18;;;28.60;53.40;;;;;;5024228;28;20041;-88
2021/06/03 13:44:02;;;;;;;10.15;9.00;;;28.80;53.70;;;;;;5004952;28;20057;-88
2021/06/03 13:46:28;;;;;;;11.80;10.27;;;29.00;52.50;;;;;;4993120;28;20081;-88
2021/06/03 13:48:54;;;;;;;10.07;8.98;;;29.00;52.50;;;;;;5007756;28;20568;-88
2021/06/03 13:51:22;;;;;;;9.90;8.90;;;28.80;52.70;;;;;;4995878;28;20050;-88
2021/06/03 13:54:00;;;;;;;10.00;7.10;;;28.60;52.10;;;;;;4908053;28;20066;-89
2021/06/03 13:56:36;;;;;;;19.27;17.27;;;28.50;52.30;;;;;;4863584;29;20060;-87
2021/06/03 13:59:23;;;;;;;16.92;15.15;;;28.70;55.60;;;;;;5082615;27;20482;-88
2021/06/03 14:01:50;;;;;;;18.30;16.40;;;28.40;55.80;;;;;;4968134;28;20050;-87
2021/06/03 14:04:24;;;;;;;16.20;14.63;;;28.10;56.80;;;;;;4928310;28;20050;-88
2021/06/03 14:07:08;;;;;;;16.38;14.77;;;27.80;58.30;;;;;;4988112;28;20058;-89
2021/06/03 14:10:09;;;;;;;16.60;14.75;;;27.80;57.90;;;;;;5026482;27;20568;-89
2021/06/03 14:12:46;;;;;;;16.60;14.90;;;28.00;57.30;;;;;;4961005;28;20423;-87
2021/06/03 14:15:15;;;;;;;14.27;12.95;;;28.10;57.20;;;;;;4927780;28;20062;-88
2021/06/03 14:20:38;;;;;;;13.50;12.10;;;28.20;57.20;;;;;;4971159;28;20461;-88
2021/06/03 14:23:04;;;;;;;17.63;15.82;;;27.80;56.20;;;;;;5001358;28;20052;-88
2021/06/03 14:25:45;;;;;;;18.13;15.15;;;27.80;57.30;;;;;;4946336;28;20965;-88
2021/06/03 14:28:18;;;;;;;26.98;23.83;;;27.80;56.90;;;;;;4910119;28;20275;-88
2021/06/03 14:30:52;;;;;;;18.40;15.07;;;28.00;59.20;;;;;;4921492;28;20521;-89
2021/06/03 14:33:21;;;;;;;23.48;21.08;;;27.90;57.60;;;;;;4905359;28;20087;-88
2021/06/03 14:35:59;;;;;;;15.73;14.02;;;27.60;59.20;;;;;;4890325;28;20053;-88
2021/06/03 14:38:25;;;;;;;29.42;26.42;;;27.30;58.90;;;;;;4880717;28;20192;-89
2021/06/03 14:40:51;;;;;;;29.48;26.30;;;27.20;60.20;;;;;;4909113;28;20062;-88
2021/06/03 14:43:49;;;;;;;24.63;21.98;;;27.30;61.10;;;;;;5013168;28;20396;-89
2021/06/03 14:46:16;;;;;;;25.13;22.42;;;27.40;59.90;;;;;;4982708;28;20060;-88
2021/06/03 14:48:46;;;;;;;25.45;22.75;;;27.70;60.10;;;;;;4892838;28;20329;-87
2021/06/03 14:51:14;;;;;;;25.55;22.58;;;28.00;58.50;;;;;;4866619;29;20052;-88
2021/06/03 14:53:56;;;;;;;27.20;24.40;;;28.20;59.90;;;;;;4438553;27;15056850;-88
2021/06/03 14:56:33;;;;;;;;;;;;;;;;;;;;;
2021/06/03 14:59:00;;;;;;;25.75;23.15;;;28.50;57.70;;;;;;4957365;28;20051;-88
2021/06/03 15:01:26;;;;;;;27.77;22.10;;;28.50;57.60;;;;;;4907101;28;20123;-88
2021/06/03 15:04:02;;;;;;;25.65;23.08;;;28.40;56.50;;;;;;4884810;29;20564;-89
2021/06/03 15:07:17;;;;;;;25.70;23.10;;;28.20;56.40;;;;;;4988946;27;20921;-87
2021/06/03 15:09:48;;;;;;;28.27;24.95;;;27.90;56.30;;;;;;4894032;28;20070;-88
2021/06/03 15:12:17;;;;;;;25.02;22.33;;;27.80;56.80;;;;;;4892021;28;20136;-87
2021/06/03 15:14:48;;;;;;;25.88;23.15;;;27.70;57.60;;;;;;4855678;28;20056;-88
2021/06/03 15:17:14;;;;;;;27.35;23.92;;;27.80;57.80;;;;;;4870394;29;20069;-87
2021/06/03 15:19:43;;;;;;;30.02;24.65;;;27.90;57.00;;;;;;4886683;28;20477;-88
2021/06/03 15:22:15;;;;;;;27.42;24.55;;;27.70;57.80;;;;;;4891884;28;20638;-88
2021/06/03 15:24:46;;;;;;;30.42;25.48;;;27.60;57.30;;;;;;4868974;29;20044;-87
2021/06/03 15:27:14;;;;;;;32.33;26.60;;;27.50;57.20;;;;;;4846249;29;419502;-87
2021/06/03 15:29:54;;;;;;;32.28;26.50;;;27.20;57.70;;;;;;4989035;27;20719;-88
2021/06/03 15:32:23;;;;;;;29.17;25.00;;;27.10;58.20;;;;;;4968241;28;20070;-87
2021/06/03 15:34:54;;;;;;;28.08;24.60;;;27.10;58.30;;;;;;4877025;28;20130;-88
2021/06/03 15:37:20;;;;;;;25.02;22.42;;;27.00;58.20;;;;;;4896829;28;20044;-89
2021/06/03 15:40:27;;;;;;;24.20;21.70;;;27.10;57.80;;;;;;5043357;27;101741;-88
2021/06/03 15:42:54;;;;;;;25.55;22.85;;;27.00;57.90;;;;;;5036362;28;20436;-88
2021/06/03 15:45:23;;;;;;;24.85;22.35;;;26.70;57.90;;;;;;5000345;28;20060;-89
2021/06/03 15:47:50;;;;;;;26.25;23.67;;;26.50;58.60;;;;;;4935083;28;20072;-88
2021/06/03 15:50:27;;;;;;;26.70;23.75;;;26.40;59.90;;;;;;4928398;28;20507;-88
2021/06/03 15:52:53;;;;;;;24.33;21.33;;;26.60;58.50;;;;;;4890165;28;20456;-88
2021/06/03 15:55:22;;;;;;;22.75;20.45;;;26.70;58.70;;;;;;4859505;29;20052;-88
2021/06/03 15:57:48;;;;;;;20.98;18.77;;;26.70;57.70;;;;;;4900268;28;20056;-88
2021/06/03 16:00:32;;;;;;;20.52;16.45;;;26.50;56.80;;;;;;4993809;28;20189;-88
2021/06/03 16:02:59;;;;;;;16.75;14.23;;;26.20;57.50;;;;;;4984353;28;20569;-87
2021/06/03 16:05:25;;;;;;;18.15;14.25;;;25.90;58.70;;;;;;4963908;28;20105;-87
2021/06/03 16:07:55;;;;;;;15.35;13.60;;;25.70;59.70;;;;;;4945098;28;20127;-88
2021/06/03 16:10:39;;;;;;;14.63;13.13;;;25.70;60.90;;;;;;4993681;28;98783;-88
2021/06/03 16:13:05;;;;;;;14.88;13.32;;;25.80;60.00;;;;;;4951220;28;20275;-87
2021/06/03 16:15:32;;;;;;;14.40;13.00;;;25.80;59.60;;;;;;4923962;28;20046;-88
2021/06/03 16:18:00;;;;;;;14.65;13.15;;;25.80;60.60;;;;;;4962864;28;20073;-87
2021/06/03 16:20:28;;;;;;;16.90;14.38;;;25.70;60.40;;;;;;4934974;28;20063;-86
2021/06/03 16:22:59;;;;;;;16.30;14.68;;;25.70;60.40;;;;;;4983284;28;20046;-92
2021/06/03 16:26:01;;;;;;;17.35;14.45;;;25.60;60.60;;;;;;4898514;28;20054;-93
2021/06/03 16:28:58;;;;;;;17.38;15.57;;;25.70;60.60;;;;;;4976204;27;20788;-93
2021/06/03 16:31:35;;;;;;;20.20;14.11;;;25.70;60.90;;;;;;4381048;28;15456114;-93
2021/06/03 16:45:01;;;;;;;16.15;14.18;;;25.60;60.90;;;;;;5000926;27;166018;-93
2021/06/03 16:47:35;;;;;;;19.45;15.52;;;25.50;61.60;;;;;;4856984;29;20574;-93
2021/06/03 16:50:18;;;;;;;16.70;14.90;;;25.40;61.30;;;;;;4984309;27;20221;-92
2021/06/03 16:52:54;;;;;;;22.92;14.50;;;25.30;61.80;;;;;;4874052;29;20119;-86
2021/06/03 16:55:51;;;;;;;15.30;13.80;;;25.40;62.00;;;;;;4996038;27;115985;-87
2021/06/03 16:58:18;;;;;;;16.42;13.98;;;25.40;61.60;;;;;;4981817;28;20049;-87
2021/06/03 17:00:48;;;;;;;16.67;14.60;;;25.40;62.20;;;;;;4888951;28;20055;-87
2021/06/03 17:03:14;;;;;;;17.63;15.15;;;25.50;62.10;;;;;;4972318;28;20049;-87
2021/06/03 17:05:41;;;;;;;17.88;15.10;;;25.60;61.60;;;;;;4935387;28;20050;-87
2021/06/03 17:08:08;;;;;;;16.48;14.75;;;25.60;61.90;;;;;;4988243;28;20041;-87
2021/06/03 17:10:37;;;;;;;18.50;15.63;;;25.40;61.60;;;;;;5050207;28;20068;-87
2021/06/03 17:13:03;;;;;;;18.33;15.77;;;25.50;61.30;;;;;;5034302;28;20049;-87
2021/06/03 17:15:30;;;;;;;19.13;15.65;;;25.50;61.80;;;;;;5049799;28;20048;-87
2021/06/03 17:17:56;;;;;;;17.95;14.65;;;25.40;62.00;;;;;;5079794;28;21401;-87
2021/06/03 17:20:43;;;;;;;16.88;14.52;;;25.70;61.30;;;;;;5081502;28;20052;-86
2021/06/03 17:23:12;;;;;;;18.45;14.18;;;26.00;60.50;;;;;;5062746;28;20060;-86
2021/06/03 17:25:43;;;;;;;19.02;15.52;;;26.50;60.50;;;;;;5097240;28;20063;-87
2021/06/03 17:28:09;;;;;;;18.33;15.43;;;26.70;58.50;;;;;;5089399;28;20056;-87
2021/06/03 17:30:37;;;;;;;16.27;14.57;;;26.60;59.40;;;;;;5097269;28;20063;-88
2021/06/03 17:33:05;;;;;;;21.45;14.15;;;26.80;58.50;;;;;;5078580;27;20047;-88
2021/06/03 17:35:32;;;;;;;19.58;13.70;;;27.10;58.20;;;;;;5071315;28;20178;-88
2021/06/03 17:38:00;;;;;;;22.55;17.02;;;27.40;57.90;;;;;;5090377;28;20068;-87
2021/06/03 17:40:27;;;;;;;20.02;17.73;;;27.70;56.30;;;;;;5095813;28;20060;-87